Time;durP1;ratioP1;P1;durP2;ratioP2;P2;SDS_P1;SDS_P2;PMS_P1;PMS_P2;Temp;Humidity;BMP_temperature;BMP_pressure;BME280_temperature;BME280_humidity;BME280_pressure;Samples;Min_cycle;Max_cycle;Signal;HPM_P1;HPM_P2
2023/02/09 00:01:11;;;;;;;8.38;3.88;;;17.10;46.30;;;;;;5001540;28;20022;-78
2023/02/09 00:03:37;;;;;;;7.88;4.03;;;17.10;46.30;;;;;;4999945;28;20022;-80
2023/02/09 00:06:05;;;;;;;5.32;3.67;;;17.10;46.30;;;;;;5000284;28;20026;-77
2023/02/09 00:08:31;;;;;;;5.68;3.67;;;17.10;46.20;;;;;;5000179;28;20033;-81
2023/02/09 00:10:57;;;;;;;6.05;4.05;;;17.10;46.20;;;;;;5001294;28;20026;-78
2023/02/09 00:13:24;;;;;;;6.40;3.78;;;17.10;46.10;;;;;;5000320;28;20230;-78
2023/02/09 00:16:00;;;;;;;3.95;3.10;;;17.20;46.10;;;;;;5000124;28;20308;-82
2023/02/09 00:18:30;;;;;;;4.35;3.53;;;17.20;46.30;;;;;;5003994;28;20022;-79
2023/02/09 00:21:07;;;;;;;5.97;3.70;;;17.20;46.30;;;;;;5004932;28;20340;-81
2023/02/09 00:23:36;;;;;;;5.95;4.05;;;17.20;46.30;;;;;;5003591;28;20033;-81
2023/02/09 00:26:05;;;;;;;8.05;4.15;;;17.20;46.10;;;;;;5004778;28;20068;-81
2023/02/09 00:28:31;;;;;;;4.90;3.55;;;17.30;46.10;;;;;;5003594;28;20029;-76
2023/02/09 00:30:57;;;;;;;5.80;3.78;;;17.30;46.10;;;;;;5004690;28;20038;-79
2023/02/09 00:33:23;;;;;;;5.80;3.58;;;17.30;46.00;;;;;;5003816;28;20250;-80
2023/02/09 00:35:48;;;;;;;6.78;3.67;;;17.30;45.80;;;;;;5004919;28;20030;-79
2023/02/09 00:38:14;;;;;;;5.15;3.63;;;17.30;45.80;;;;;;5003553;28;20364;-81
2023/02/09 00:40:40;;;;;;;5.70;4.40;;;17.30;45.80;;;;;;5003595;28;20566;-76
2023/02/09 00:43:07;;;;;;;6.32;4.28;;;17.30;45.80;;;;;;5004943;28;20250;-78
2023/02/09 00:45:34;;;;;;;6.55;3.92;;;17.30;45.70;;;;;;5005007;28;20026;-78
2023/02/09 00:48:00;;;;;;;5.80;3.88;;;17.30;45.80;;;;;;5005036;28;20030;-77
2023/02/09 00:50:27;;;;;;;7.82;4.43;;;17.30;45.60;;;;;;5003202;28;20076;-77
2023/02/09 00:52:53;;;;;;;5.40;4.00;;;17.30;45.70;;;;;;5004711;28;20093;-77
2023/02/09 00:55:19;;;;;;;7.22;4.20;;;17.30;45.60;;;;;;5003538;28;20030;-79
2023/02/09 00:57:44;;;;;;;5.80;3.80;;;17.20;45.60;;;;;;5004449;28;20077;-78
2023/02/09 01:00:12;;;;;;;6.40;3.55;;;17.20;46.10;;;;;;5003189;28;20023;-77
2023/02/09 01:02:38;;;;;;;7.43;3.97;;;17.20;45.60;;;;;;5004379;28;20026;-78
2023/02/09 01:05:04;;;;;;;6.63;3.90;;;17.20;45.70;;;;;;5003066;28;20061;-78
2023/02/09 01:07:30;;;;;;;6.07;3.72;;;17.20;45.70;;;;;;5003162;28;20030;-77
2023/02/09 01:09:56;;;;;;;5.80;3.95;;;17.20;45.60;;;;;;5004446;28;20032;-78
2023/02/09 01:12:22;;;;;;;5.35;3.90;;;17.20;45.70;;;;;;5002961;28;20026;-77
2023/02/09 01:14:48;;;;;;;5.13;3.88;;;17.20;45.80;;;;;;5004264;28;20034;-78
2023/02/09 01:17:13;;;;;;;5.32;3.75;;;17.20;45.60;;;;;;5004253;28;20052;-77
2023/02/09 01:19:39;;;;;;;5.47;3.88;;;17.30;45.70;;;;;;5002845;28;20026;-76
2023/02/09 01:22:05;;;;;;;5.68;4.05;;;17.30;45.80;;;;;;5004413;28;20026;-79
2023/02/09 01:24:30;;;;;;;5.55;3.95;;;17.30;45.70;;;;;;5002600;28;20073;-79
2023/02/09 01:26:56;;;;;;;4.35;3.38;;;17.30;45.60;;;;;;5002729;28;20030;-78
2023/02/09 01:29:22;;;;;;;5.30;3.72;;;17.30;45.70;;;;;;5001651;28;20033;-79
2023/02/09 01:31:47;;;;;;;5.97;3.85;;;17.30;45.50;;;;;;5002684;28;20026;-78
2023/02/09 01:34:16;;;;;;;5.75;3.90;;;17.40;45.60;;;;;;5002920;28;20030;-78
2023/02/09 01:36:42;;;;;;;4.75;3.30;;;17.30;45.50;;;;;;5003828;28;20030;-79
2023/02/09 01:39:10;;;;;;;4.90;3.47;;;17.30;45.50;;;;;;5004010;28;20270;-80
2023/02/09 01:41:36;;;;;;;5.75;4.25;;;17.30;45.60;;;;;;5002467;28;20034;-77
2023/02/09 01:44:11;;;;;;;4.95;3.35;;;17.30;45.60;;;;;;5003770;28;20034;-78
2023/02/09 01:46:37;;;;;;;3.67;3.13;;;17.40;45.60;;;;;;5002528;28;20337;-77
2023/02/09 01:49:19;;;;;;;5.75;3.65;;;17.30;45.50;;;;;;5003934;28;20306;-77
2023/02/09 01:51:51;;;;;;;6.38;4.13;;;17.40;45.50;;;;;;5003335;28;20048;-82
2023/02/09 01:54:28;;;;;;;5.70;4.10;;;17.40;45.50;;;;;;5001931;28;20033;-80
2023/02/09 01:56:58;;;;;;;5.72;3.72;;;17.30;45.30;;;;;;5002249;28;20019;-81
2023/02/09 01:59:25;;;;;;;6.85;4.18;;;17.30;45.40;;;;;;5003664;28;20026;-80
2023/02/09 02:01:52;;;;;;;4.60;3.38;;;17.20;45.60;;;;;;5003399;28;20060;-79
2023/02/09 02:04:19;;;;;;;4.97;3.50;;;17.20;45.60;;;;;;5001734;28;20333;-79
2023/02/09 02:06:45;;;;;;;6.10;3.88;;;17.30;45.80;;;;;;5001795;28;20065;-79
2023/02/09 02:09:13;;;;;;;6.50;4.10;;;17.30;45.60;;;;;;5001568;28;20022;-80
2023/02/09 02:11:42;;;;;;;5.85;3.83;;;17.30;45.60;;;;;;5003010;28;20031;-80
2023/02/09 02:14:35;;;;;;;4.47;3.33;;;17.30;45.50;;;;;;5002904;28;20054;-81
2023/02/09 02:17:07;;;;;;;6.38;3.47;;;17.20;45.50;;;;;;5002703;28;20033;-81
2023/02/09 02:19:57;;;;;;;6.03;4.00;;;17.20;45.50;;;;;;5001757;28;20052;-77
2023/02/09 02:22:38;;;;;;;5.32;3.65;;;17.10;45.60;;;;;;5001833;28;20290;-79
2023/02/09 02:25:22;;;;;;;6.30;3.50;;;17.00;45.80;;;;;;5002843;28;20057;-78
2023/02/09 02:28:03;;;;;;;5.90;3.80;;;17.00;46.70;;;;;;5001496;28;20341;-79
2023/02/09 02:31:01;;;;;;;5.50;3.22;;;16.90;46.10;;;;;;5001386;28;20266;-76
2023/02/09 02:34:04;;;;;;;5.27;3.43;;;16.80;46.20;;;;;;5002788;28;20022;-80
2023/02/09 02:37:00;;;;;;;5.03;3.80;;;16.80;46.40;;;;;;4969130;28;20395;-79
2023/02/09 02:39:37;;;;;;;4.97;3.15;;;16.70;46.60;;;;;;5000929;28;20026;-79
2023/02/09 02:42:48;;;;;;;5.15;3.78;;;16.70;46.60;;;;;;5002309;28;20105;-78
2023/02/09 02:45:20;;;;;;;4.75;3.50;;;16.80;46.60;;;;;;4998163;28;20088;-77
2023/02/09 02:47:54;;;;;;;6.55;3.55;;;16.90;46.60;;;;;;5002177;28;20026;-76
2023/02/09 02:50:25;;;;;;;5.30;3.90;;;16.90;46.50;;;;;;5002342;28;20026;-80
2023/02/09 02:52:55;;;;;;;5.68;3.70;;;17.00;46.30;;;;;;5002351;28;20030;-80
2023/02/09 02:55:24;;;;;;;5.47;3.90;;;17.00;46.20;;;;;;5002525;28;20033;-80
2023/02/09 02:57:53;;;;;;;5.30;3.70;;;17.00;46.00;;;;;;5002280;28;20030;-80
2023/02/09 03:00:25;;;;;;;4.78;3.58;;;17.00;45.90;;;;;;5000858;28;20030;-77
2023/02/09 03:02:59;;;;;;;3.92;3.05;;;17.00;45.90;;;;;;5000886;28;20307;-76
2023/02/09 03:05:26;;;;;;;5.43;3.85;;;17.00;46.10;;;;;;5001029;28;20053;-77
2023/02/09 03:07:52;;;;;;;4.30;3.42;;;17.00;45.90;;;;;;5002061;28;20101;-81
2023/02/09 03:10:23;;;;;;;5.43;3.80;;;17.00;45.80;;;;;;5000742;28;20435;-79
2023/02/09 03:13:04;;;;;;;4.93;3.70;;;17.00;45.90;;;;;;5000717;28;20228;-81
2023/02/09 03:15:39;;;;;;;5.65;3.83;;;17.10;45.70;;;;;;5001838;28;20076;-79
2023/02/09 03:18:29;;;;;;;5.88;3.90;;;17.10;45.70;;;;;;5000563;28;20226;-77
2023/02/09 03:21:20;;;;;;;5.93;3.33;;;17.00;45.60;;;;;;5001640;28;20029;-78
2023/02/09 03:24:18;;;;;;;6.70;3.80;;;17.00;45.70;;;;;;5000629;28;20327;-79
2023/02/09 03:26:48;;;;;;;;;;;17.00;45.70;;;;;;4987971;28;20034;-78
2023/02/09 03:29:14;;;;;;;;;;;17.10;45.90;;;;;;5000859;28;20086;-79
2023/02/09 03:31:40;;;;;;;;;;;17.10;45.70;;;;;;5001940;28;20004;-79
2023/02/09 03:34:05;;;;;;;;;;;17.10;45.70;;;;;;5000771;28;19917;-77
2023/02/09 03:36:32;;;;;;;;;;;17.20;45.70;;;;;;5001874;28;19937;-77
2023/02/09 03:38:58;;;;;;;;;;;17.10;45.50;;;;;;5000907;28;19905;-76
2023/02/09 03:41:23;;;;;;;;;;;17.10;45.40;;;;;;5001905;28;19957;-78
2023/02/09 03:46:33;;;;;;;;;;;17.10;45.50;;;;;;5001953;28;19916;-78
2023/02/09 03:48:59;;;;;;;;;;;17.20;45.50;;;;;;5002001;28;19901;-80
2023/02/09 03:51:24;;;;;;;;;;;17.20;45.50;;;;;;5001775;28;19921;-78
2023/02/09 03:53:50;;;;;;;;;;;17.20;45.40;;;;;;5005561;28;19914;-79
2023/02/09 03:56:15;;;;;;;;;;;17.20;45.40;;;;;;5004952;28;19909;-78
2023/02/09 03:58:41;;;;;;;;;;;17.20;45.40;;;;;;5006211;28;20035;-77
2023/02/09 04:01:08;;;;;;;;;;;17.10;45.40;;;;;;5005030;28;19909;-78
2023/02/09 04:03:34;;;;;;;;;;;17.10;45.40;;;;;;5006195;28;19909;-80
2023/02/09 04:06:00;;;;;;;;;;;17.10;45.30;;;;;;5004595;28;19917;-77
2023/02/09 04:08:25;;;;;;;;;;;17.10;45.40;;;;;;5004665;28;19977;-77
2023/02/09 04:10:51;;;;;;;;;;;17.10;45.20;;;;;;5005697;28;20166;-76
2023/02/09 04:13:16;;;;;;;;;;;17.10;45.20;;;;;;5005766;28;19909;-78
2023/02/09 04:15:42;;;;;;;;;;;17.10;45.20;;;;;;5004586;28;19909;-77
2023/02/09 04:18:08;;;;;;;;;;;17.10;45.20;;;;;;5004448;28;19914;-76
2023/02/09 04:20:33;;;;;;;;;;;17.00;45.00;;;;;;5005773;28;19910;-77
2023/02/09 04:22:59;;;;;;;;;;;17.00;45.30;;;;;;5004303;28;19910;-77
2023/02/09 04:25:24;;;;;;;;;;;17.00;45.40;;;;;;5005478;28;20283;-75
2023/02/09 04:27:50;;;;;;;;;;;17.00;45.40;;;;;;5005363;28;19916;-78
2023/02/09 04:30:15;;;;;;;;;;;17.10;45.30;;;;;;5004159;28;19917;-77
2023/02/09 04:32:41;;;;;;;;;;;17.10;45.30;;;;;;5004110;28;20102;-76
2023/02/09 04:35:06;;;;;;;;;;;17.10;45.20;;;;;;5003964;28;19905;-75
2023/02/09 04:37:32;;;;;;;;;;;17.10;45.30;;;;;;5005386;28;19920;-78
2023/02/09 04:39:57;;;;;;;;;;;17.10;45.40;;;;;;5003994;28;20129;-78
2023/02/09 04:42:23;;;;;;;;;;;17.10;45.20;;;;;;5004975;28;20202;-77
2023/02/09 04:44:49;;;;;;;;;;;17.10;45.20;;;;;;5004064;28;20201;-77
2023/02/09 04:47:15;;;;;;;;;;;17.10;45.30;;;;;;5005210;28;19910;-77
2023/02/09 04:49:41;;;;;;;;;;;17.10;45.20;;;;;;5004034;28;19910;-77
2023/02/09 04:52:07;;;;;;;;;;;17.10;45.10;;;;;;5004024;28;19922;-76
2023/02/09 04:54:32;;;;;;;;;;;17.10;45.10;;;;;;5005163;28;19952;-76
2023/02/09 04:59:43;;;;;;;;;;;17.10;45.10;;;;;;5005115;28;19908;-77
2023/02/09 05:02:09;;;;;;;;;;;17.10;45.10;;;;;;5004861;28;19979;-77
2023/02/09 05:04:34;;;;;;;;;;;17.10;45.20;;;;;;5004474;28;19909;-80
2023/02/09 05:07:00;;;;;;;;;;;17.10;45.10;;;;;;5003617;28;19910;-77
2023/02/09 05:09:26;;;;;;;;;;;17.10;45.20;;;;;;5004594;28;19916;-76
2023/02/09 05:11:51;;;;;;;;;;;17.10;45.30;;;;;;5003437;28;19902;-79
2023/02/09 05:14:17;;;;;;;;;;;17.10;45.20;;;;;;5004884;28;19925;-77
2023/02/09 05:16:42;;;;;;;;;;;17.10;45.20;;;;;;5004537;28;19909;-77
2023/02/09 05:19:08;;;;;;;;;;;17.10;45.20;;;;;;5003249;28;19910;-79
2023/02/09 05:21:34;;;;;;;;;;;17.00;45.10;;;;;;5003056;28;20024;-76
2023/02/09 05:23:59;;;;;;;;;;;17.00;45.00;;;;;;5003053;28;19916;-78
2023/02/09 05:26:25;;;;;;;;;;;17.00;45.20;;;;;;5004223;28;19916;-78
2023/02/09 05:28:50;;;;;;;;;;;17.00;45.30;;;;;;5004272;28;20252;-76
2023/02/09 05:31:16;;;;;;;;;;;17.00;45.20;;;;;;5004107;28;19908;-77
2023/02/09 05:33:42;;;;;;;;;;;17.00;45.30;;;;;;5003025;28;19984;-77
2023/02/09 05:36:08;;;;;;;;;;;17.00;45.30;;;;;;5004252;28;19901;-78
2023/02/09 05:38:36;;;;;;;;;;;17.00;45.30;;;;;;5002508;28;19914;-80
2023/02/09 05:41:05;;;;;;;;;;;17.00;45.20;;;;;;5004105;28;19976;-81
2023/02/09 05:43:30;;;;;;;;;;;17.00;45.40;;;;;;5002891;28;20149;-77
2023/02/09 05:45:56;;;;;;;;;;;16.90;45.40;;;;;;5004111;28;19909;-77
2023/02/09 05:48:21;;;;;;;;;;;17.00;45.50;;;;;;5003842;28;19980;-77
2023/02/09 05:50:47;;;;;;;;;;;17.00;45.60;;;;;;5003681;28;19922;-76
2023/02/09 05:53:12;;;;;;;;;;;17.00;45.50;;;;;;5003823;28;19956;-77
2023/02/09 05:55:38;;;;;;;;;;;17.10;45.30;;;;;;5003667;28;19972;-80
2023/02/09 05:58:04;;;;;;;;;;;17.10;45.40;;;;;;5003633;28;20342;-79
2023/02/09 06:00:29;;;;;;;;;;;17.00;45.20;;;;;;5003489;28;19909;-77
2023/02/09 06:02:55;;;;;;;;;;;17.00;45.20;;;;;;5002390;28;19925;-78
2023/02/09 06:05:21;;;;;;;;;;;17.00;45.30;;;;;;5003281;28;19909;-79
2023/02/09 06:07:47;;;;;;;;;;;17.00;45.20;;;;;;5003568;28;19910;-78
2023/02/09 06:10:12;;;;;;;;;;;17.00;45.30;;;;;;5002370;28;20293;-76
2023/02/09 06:12:38;;;;;;;;;;;17.00;45.20;;;;;;5003362;28;20158;-81
2023/02/09 06:15:04;;;;;;;;;;;17.00;45.10;;;;;;5001390;28;19906;-78
2023/02/09 06:17:29;;;;;;;;;;;17.00;45.10;;;;;;5003471;28;19921;-81
2023/02/09 06:19:55;;;;;;;;;;;16.90;45.10;;;;;;5001960;28;19916;-77
2023/02/09 06:22:20;;;;;;;;;;;16.90;45.10;;;;;;5001854;28;19947;-78
2023/02/09 06:24:46;;;;;;;;;;;16.90;45.20;;;;;;5002834;28;20003;-80
2023/02/09 06:27:12;;;;;;;;;;;16.90;45.10;;;;;;5001723;28;19910;-81
2023/02/09 06:29:38;;;;;;;;;;;16.90;45.30;;;;;;5001664;28;19916;-77
2023/02/09 06:32:04;;;;;;;;;;;17.00;46.00;;;;;;5003102;28;19910;-76
2023/02/09 06:34:29;;;;;;;;;;;17.00;45.30;;;;;;5001746;28;19916;-78
2023/02/09 06:36:55;;;;;;;;;;;17.00;45.20;;;;;;5002893;28;20247;-79
2023/02/09 06:39:21;;;;;;;;;;;17.00;45.30;;;;;;5001632;28;19909;-81
2023/02/09 06:41:46;;;;;;;;;;;17.00;45.20;;;;;;5001451;28;19945;-80
2023/02/09 06:44:12;;;;;;;;;;;17.00;45.20;;;;;;5001342;28;19916;-79
2023/02/09 06:46:38;;;;;;;;;;;17.10;45.30;;;;;;5001372;28;20101;-80
2023/02/09 06:49:03;;;;;;;;;;;17.10;45.20;;;;;;5001266;28;20124;-79
2023/02/09 06:51:29;;;;;;;;;;;17.10;45.20;;;;;;5000945;28;19928;-77
2023/02/09 06:53:54;;;;;;;;;;;17.10;45.20;;;;;;5002472;28;19921;-77
2023/02/09 06:56:20;;;;;;;;;;;17.20;45.10;;;;;;5001333;28;19910;-78
2023/02/09 06:58:46;;;;;;;;;;;17.20;45.10;;;;;;5001174;28;19953;-77
2023/02/09 07:01:14;;;;;;;;;;;17.20;44.90;;;;;;5001222;28;19909;-80
2023/02/09 07:03:40;;;;;;;;;;;17.20;45.10;;;;;;5001126;28;19909;-81
2023/02/09 07:06:07;;;;;;;;;;;17.20;45.10;;;;;;5002357;28;19973;-81
2023/02/09 07:08:33;;;;;;;;;;;17.20;45.10;;;;;;5000881;28;20182;-80
2023/02/09 07:11:03;;;;;;;;;;;17.20;45.00;;;;;;5002291;28;19901;-80
2023/02/09 07:13:29;;;;;;;;;;;17.20;44.90;;;;;;5002277;28;19910;-77
2023/02/09 07:15:55;;;;;;;;;;;17.30;44.90;;;;;;5002528;28;19923;-79
2023/02/09 07:18:21;;;;;;;;;;;17.20;44.80;;;;;;5002142;28;19913;-79
2023/02/09 07:20:52;;;;;;;;;;;17.20;44.80;;;;;;5000888;28;19913;-76
2023/02/09 07:23:17;;;;;;;;;;;17.20;44.90;;;;;;5001055;28;19941;-75
2023/02/09 07:25:43;;;;;;;;;;;17.20;45.10;;;;;;5002054;28;19916;-77
2023/02/09 07:28:09;;;;;;;;;;;17.20;44.90;;;;;;5000053;28;19916;-77
2023/02/09 07:30:35;;;;;;;;;;;17.20;45.00;;;;;;5000696;28;19910;-76
2023/02/09 07:33:01;;;;;;;;;;;17.30;44.90;;;;;;5002041;28;20232;-76
2023/02/09 07:35:26;;;;;;;;;;;17.30;44.80;;;;;;5001944;28;19909;-80
2023/02/09 07:37:52;;;;;;;;;;;17.40;44.70;;;;;;5002017;28;20385;-80
2023/02/09 07:40:18;;;;;;;;;;;17.50;44.80;;;;;;5000876;28;20244;-77
2023/02/09 07:42:43;;;;;;;;;;;17.50;44.50;;;;;;5002378;28;19981;-80
2023/02/09 07:45:09;;;;;;;;;;;17.50;44.40;;;;;;5001142;28;20116;-80
2023/02/09 07:47:37;;;;;;;;;;;17.50;44.50;;;;;;5001344;28;20389;-79
2023/02/09 07:50:03;;;;;;;;;;;17.50;44.40;;;;;;5001120;28;19913;-80
2023/02/09 07:52:29;;;;;;;;;;;17.50;44.60;;;;;;5002139;28;19922;-80
2023/02/09 07:54:54;;;;;;;;;;;17.50;44.50;;;;;;5001217;28;19913;-79
2023/02/09 07:57:20;;;;;;;;;;;17.50;44.50;;;;;;5002517;28;19913;-79
2023/02/09 07:59:45;;;;;;;;;;;17.50;44.50;;;;;;5000521;28;20129;-80
2023/02/09 08:02:15;;;;;;;;;;;17.40;44.60;;;;;;5001974;28;19933;-80
2023/02/09 08:04:42;;;;;;;;;;;17.40;44.50;;;;;;5000836;28;19916;-80
2023/02/09 08:07:09;;;;;;;;;;;17.40;44.80;;;;;;5000873;28;19988;-79
2023/02/09 08:09:34;;;;;;;;;;;17.40;44.80;;;;;;5002162;28;19916;-80
2023/02/09 08:12:01;;;;;;;;;;;17.30;44.90;;;;;;5001739;28;20273;-78
2023/02/09 08:14:28;;;;;;;;;;;17.30;45.00;;;;;;5001529;28;19901;-79
2023/02/09 08:17:18;;;;;;;;;;;17.40;45.00;;;;;;5000249;28;19909;-80
2023/02/09 08:19:41;;;;;;;;;;;17.50;44.90;;;;;;5001931;28;19944;-78
2023/02/09 08:22:06;;;;;;;;;;;17.50;44.80;;;;;;5002348;28;19902;-79
2023/02/09 08:24:35;;;;;;;;;;;17.60;44.80;;;;;;5000375;28;19910;-82
2023/02/09 08:27:01;;;;;;;;;;;17.70;44.70;;;;;;5000200;28;19948;-82
2023/02/09 08:29:26;;;;;;;;;;;17.70;44.50;;;;;;5001663;28;19901;-80
2023/02/09 08:31:52;;;;;;;;;;;17.70;44.50;;;;;;5001789;28;19972;-79
2023/02/09 08:34:17;;;;;;;;;;;17.70;44.30;;;;;;5000920;28;19910;-78
2023/02/09 08:36:43;;;;;;;;;;;17.80;44.30;;;;;;5001368;28;19916;-79
2023/02/09 08:39:09;;;;;;;;;;;17.80;44.30;;;;;;5003243;28;19917;-81
2023/02/09 08:41:34;;;;;;;;;;;17.90;44.30;;;;;;5006690;28;19910;-79
2023/02/09 08:44:00;;;;;;;;;;;17.90;44.00;;;;;;5004460;28;19910;-79
2023/02/09 08:46:25;;;;;;;;;;;18.00;44.10;;;;;;5004369;28;19909;-80
2023/02/09 08:48:51;;;;;;;;;;;18.00;43.90;;;;;;5004397;28;19933;-82
2023/02/09 08:51:17;;;;;;;;;;;18.10;43.80;;;;;;5004283;28;19929;-80
2023/02/09 08:53:46;;;;;;;;;;;18.10;43.80;;;;;;5005470;28;19905;-81
2023/02/09 08:56:12;;;;;;;;;;;18.10;43.70;;;;;;5005715;28;20213;-77
2023/02/09 08:58:37;;;;;;;;;;;18.10;43.80;;;;;;5006959;28;19981;-79
2023/02/09 09:01:04;;;;;;;;;;;18.10;43.70;;;;;;5005688;28;19902;-81
2023/02/09 09:03:31;;;;;;;;;;;18.20;43.60;;;;;;5005115;28;19918;-80
2023/02/09 09:05:58;;;;;;;;;;;18.20;43.60;;;;;;5004555;28;20153;-81
2023/02/09 09:08:24;;;;;;;;;;;18.20;43.50;;;;;;5005544;28;19910;-80
2023/02/09 09:10:49;;;;;;;;;;;18.20;43.30;;;;;;5004048;28;20264;-80
2023/02/09 09:13:15;;;;;;;;;;;18.10;43.50;;;;;;5003603;28;19909;-80
2023/02/09 09:15:41;;;;;;;;;;;18.00;43.50;;;;;;5003661;28;19909;-80
2023/02/09 09:18:08;;;;;;;;;;;17.90;43.50;;;;;;5003913;28;19913;-80
2023/02/09 09:20:33;;;;;;;;;;;17.90;43.80;;;;;;5004316;28;19908;-79
2023/02/09 09:23:00;;;;;;;;;;;17.90;43.90;;;;;;5005748;28;19976;-79
2023/02/09 09:25:26;;;;;;;;;;;17.80;44.10;;;;;;5004145;28;19913;-81
2023/02/09 09:27:52;;;;;;;;;;;17.80;44.20;;;;;;5004867;28;19951;-81
2023/02/09 09:30:17;;;;;;;;;;;17.80;44.10;;;;;;5005235;28;20104;-80
2023/02/09 09:32:43;;;;;;;;;;;17.80;44.30;;;;;;5005266;28;19901;-80
2023/02/09 09:35:08;;;;;;;;;;;17.80;44.30;;;;;;5004028;28;20189;-82
2023/02/09 09:37:34;;;;;;;;;;;17.80;44.30;;;;;;5003730;28;20185;-81
2023/02/09 09:39:59;;;;;;;;;;;17.80;44.40;;;;;;5003010;28;19910;-81
2023/02/09 09:42:42;;;;;;;;;;;17.80;44.30;;;;;;5002749;28;19953;-81
2023/02/09 09:45:12;;;;;;;;;;;17.80;44.60;;;;;;5002851;28;19910;-80
2023/02/09 09:47:39;;;;;;;;;;;17.80;44.40;;;;;;5003620;28;19902;-78
2023/02/09 09:50:06;;;;;;;;;;;17.90;44.50;;;;;;5004213;28;19901;-78
2023/02/09 09:52:36;;;;;;;;;;;18.00;44.40;;;;;;5004143;28;19968;-79
2023/02/09 09:55:04;;;;;;;;;;;18.10;44.40;;;;;;5005657;28;19909;-79
2023/02/09 09:57:30;;;;;;;;;;;18.10;44.30;;;;;;5004551;28;19914;-77
2023/02/09 09:59:56;;;;;;;;;;;18.20;44.20;;;;;;5004751;28;19944;-77
2023/02/09 10:02:22;;;;;;;;;;;18.20;44.20;;;;;;5005085;28;20091;-79
2023/02/09 10:04:48;;;;;;;;;;;18.20;44.00;;;;;;5003974;28;19916;-79
2023/02/09 10:07:16;;;;;;;;;;;18.30;43.90;;;;;;5003848;28;19916;-80
2023/02/09 10:09:54;;;;;;;;;;;18.30;43.70;;;;;;5005184;28;20016;-80
2023/02/09 10:12:40;;;;;;;;;;;18.30;43.80;;;;;;5004888;28;19952;-79
2023/02/09 10:15:17;;;;;;;;;;;18.30;43.90;;;;;;5004026;28;19973;-79
2023/02/09 10:17:43;;;;;;;;;;;18.30;43.90;;;;;;5005710;28;19910;-77
2023/02/09 10:20:09;;;;;;;;;;;18.40;43.90;;;;;;5006462;28;19937;-77
2023/02/09 10:22:34;;;;;;;;;;;18.40;43.90;;;;;;5006515;28;19902;-77
2023/02/09 10:25:20;;;;;;;;;;;18.40;43.80;;;;;;5005600;28;19910;-76
2023/02/09 10:27:45;;;;;;;;;;;18.30;43.90;;;;;;5004419;28;19905;-77
2023/02/09 10:30:18;;;;;;;;;;;18.30;43.90;;;;;;5005846;28;20069;-76
2023/02/09 10:32:44;;;;;;;;;;;18.30;44.00;;;;;;5006652;28;19929;-76
2023/02/09 10:35:27;;;;;;;;;;;18.20;43.90;;;;;;5006430;28;19949;-79
2023/02/09 10:38:16;;;;;;;;;;;18.20;43.70;;;;;;5004419;28;20104;-81
2023/02/09 10:40:42;;;;;;;;;;;18.20;43.80;;;;;;4998821;28;19910;-78
2023/02/09 10:43:18;;;;;;;;;;;18.20;44.20;;;;;;5004263;28;20112;-77
2023/02/09 10:45:45;;;;;;;;;;;18.20;44.00;;;;;;5005373;28;19921;-79
2023/02/09 10:48:10;;;;;;;;;;;18.10;43.70;;;;;;5004249;28;19916;-79
2023/02/09 10:50:55;;;;;;;;;;;18.10;43.60;;;;;;5005738;28;19910;-80
2023/02/09 10:53:30;;;;;;;;;;;18.20;43.90;;;;;;5006033;28;19914;-80
2023/02/09 10:56:02;;;;;;;;;;;18.10;44.10;;;;;;5004991;28;19919;-78
2023/02/09 10:58:30;;;;;;;;;;;18.10;44.10;;;;;;5003587;28;20105;-80
2023/02/09 11:01:13;;;;;;;;;;;18.00;43.80;;;;;;5002700;28;20205;-80
2023/02/09 11:03:55;;;;;;;;;;;18.10;43.90;;;;;;5004291;28;19906;-79
2023/02/09 11:06:20;;;;;;;;;;;18.20;43.80;;;;;;5002961;28;19909;-80
2023/02/09 11:08:49;;;;;;;;;;;18.20;44.10;;;;;;5002923;28;19910;-79
2023/02/09 11:11:18;;;;;;;;;;;18.20;44.00;;;;;;5005419;28;19910;-76
2023/02/09 11:13:43;;;;;;;;;;;18.40;43.90;;;;;;5004605;28;19913;-79
2023/02/09 11:16:24;;;;;;;;;;;18.00;43.30;;;;;;5004836;28;19901;-77
2023/02/09 11:19:08;;;;;;;;;;;18.20;43.70;;;;;;5004937;28;20212;-79
2023/02/09 11:21:46;;;;;;;;;;;18.30;43.60;;;;;;5004600;28;19916;-78
2023/02/09 11:24:29;;;;;;;;;;;18.40;43.60;;;;;;5003683;28;19909;-76
2023/02/09 11:27:18;;;;;;;;;;;18.40;43.60;;;;;;5002881;28;19909;-76
2023/02/09 11:29:50;;;;;;;;;;;18.40;43.60;;;;;;4997256;28;19902;-76
2023/02/09 11:32:19;;;;;;;;;;;18.40;43.50;;;;;;5002859;28;19949;-75
2023/02/09 11:34:50;;;;;;;;;;;18.40;43.60;;;;;;5002977;28;19905;-76
2023/02/09 11:37:39;;;;;;;;;;;18.40;43.60;;;;;;5004675;28;19941;-77
2023/02/09 11:40:14;;;;;;;;;;;18.30;43.60;;;;;;5004039;28;19909;-78
2023/02/09 11:42:43;;;;;;;;;;;18.30;44.00;;;;;;5004343;28;19928;-76
2023/02/09 11:45:11;;;;;;;;;;;18.30;44.20;;;;;;5001959;28;19916;-75
2023/02/09 11:47:57;;;;;;;;;;;18.30;44.30;;;;;;5003827;28;19937;-75
2023/02/09 11:50:26;;;;;;;;;;;18.20;44.80;;;;;;5002768;28;19910;-76
2023/02/09 11:52:54;;;;;;;;;;;18.20;45.00;;;;;;5003701;28;19949;-77
2023/02/09 11:55:19;;;;;;;;;;;18.20;44.90;;;;;;5004393;28;19902;-77
2023/02/09 11:57:47;;;;;;;;;;;18.20;44.90;;;;;;5003423;28;19909;-79
2023/02/09 12:00:18;;;;;;;;;;;18.20;44.90;;;;;;5002564;28;19909;-79
2023/02/09 12:02:50;;;;;;;;;;;18.20;45.10;;;;;;5003457;28;19910;-77
2023/02/09 12:05:17;;;;;;;;;;;18.20;44.90;;;;;;5002688;28;19956;-77
2023/02/09 12:07:43;;;;;;;;;;;18.20;45.20;;;;;;5003630;28;19910;-76
2023/02/09 12:10:31;;;;;;;;;;;18.20;45.30;;;;;;5002973;28;19902;-77
2023/02/09 12:12:57;;;;;;;;;;;18.10;39.90;;;;;;5002857;28;19910;-75
2023/02/09 12:15:25;;;;;;;;;;;18.00;43.10;;;;;;5000326;28;19910;-75
2023/02/09 12:18:03;;;;;;;;;;;18.10;43.90;;;;;;5005588;28;19992;-75
2023/02/09 12:20:43;;;;;;;;;;;18.20;44.00;;;;;;5003039;28;20078;-73
2023/02/09 12:23:32;;;;;;;;;;;18.30;44.00;;;;;;5004339;28;19941;-77
2023/02/09 12:26:01;;;;;;;;;;;18.30;44.10;;;;;;4998082;28;19913;-74
2023/02/09 12:28:26;;;;;;;;;;;18.40;44.30;;;;;;5002851;28;19909;-74
2023/02/09 12:30:51;;;;;;;;;;;18.40;44.30;;;;;;5001674;28;19952;-76
2023/02/09 12:33:23;;;;;;;;;;;18.50;44.30;;;;;;5006004;28;19910;-74
2023/02/09 12:36:07;;;;;;;;;;;18.50;44.40;;;;;;5004027;28;19918;-76
2023/02/09 12:38:58;;;;;;;;;;;18.50;44.50;;;;;;5005150;28;20212;-73
2023/02/09 12:41:50;;;;;;;;;;;18.50;44.70;;;;;;5004819;28;19916;-76
2023/02/09 12:44:15;;;;;;;;;;;18.50;44.60;;;;;;5003696;28;19917;-74
2023/02/09 12:46:44;;;;;;;;;;;18.60;44.70;;;;;;5004582;28;19968;-72
2023/02/09 12:49:12;;;;;;;;;;;18.50;44.80;;;;;;5004153;28;20259;-72
2023/02/09 12:51:53;;;;;;;;;;;18.50;44.90;;;;;;5003978;28;19929;-73
2023/02/09 12:54:37;;;;;;;;;;;18.50;45.00;;;;;;5002686;28;19909;-72
2023/02/09 12:57:24;;;;;;;;;;;18.40;45.00;;;;;;5004952;28;19909;-75
2023/02/09 12:59:50;;;;;;;;;;;18.40;45.20;;;;;;4990310;28;19917;-75
2023/02/09 13:02:38;;;;;;;;;;;18.40;45.40;;;;;;5003307;28;19972;-72
2023/02/09 13:05:07;;;;;;;;;;;18.40;45.50;;;;;;4976062;28;19910;-74
2023/02/09 13:07:32;;;;;;;;;;;18.40;45.70;;;;;;4983687;28;19910;-71
2023/02/09 13:10:01;;;;;;;;;;;18.50;45.40;;;;;;4984960;28;19910;-73
2023/02/09 13:12:33;;;;;;;;;;;18.50;45.30;;;;;;4984575;28;19917;-73
2023/02/09 13:15:04;;;;;;;;;;;18.40;43.40;;;;;;4984958;28;19940;-74
2023/02/09 13:17:29;;;;;;;;;;;18.50;45.00;;;;;;4984880;28;19921;-73
2023/02/09 13:19:59;;;;;;;;;;;18.60;45.20;;;;;;4985169;28;19921;-73
2023/02/09 13:22:33;;;;;;;;;;;18.60;45.20;;;;;;4986808;28;19902;-73
2023/02/09 13:25:21;;;;;;;;;;;18.60;45.20;;;;;;4985377;28;20257;-73
2023/02/09 13:27:48;;;;;;;;;;;18.70;45.10;;;;;;4985369;28;19910;-74
2023/02/09 13:30:28;;;;;;;;;;;18.80;45.10;;;;;;4986744;28;19910;-74
2023/02/09 13:32:59;;;;;;;;;;;18.80;44.90;;;;;;4985029;28;20090;-73
2023/02/09 13:35:39;;;;;;;;;;;18.90;44.90;;;;;;4985772;28;19917;-73
2023/02/09 13:38:15;;;;;;;;;;;19.00;44.70;;;;;;4985139;28;19981;-73
2023/02/09 13:40:48;;;;;;;;;;;19.00;44.50;;;;;;4982980;28;20165;-75
2023/02/09 13:43:16;;;;;;;;;;;19.20;44.30;;;;;;4983865;28;20232;-75
2023/02/09 13:45:46;;;;;;;;;;;19.30;44.00;;;;;;4983828;28;20094;-74
2023/02/09 13:48:21;;;;;;;;;;;19.40;43.80;;;;;;4983672;28;19953;-75
2023/02/09 13:50:47;;;;;;;;;;;19.50;43.40;;;;;;4983971;28;19925;-76
2023/02/09 13:53:15;;;;;;;;;;;19.70;43.20;;;;;;4983773;28;19914;-74
2023/02/09 13:55:43;;;;;;;;;;;19.90;42.90;;;;;;4983728;28;19977;-75
2023/02/09 13:58:12;;;;;;;;;;;;;;;;;;4982443;28;20138;-75
2023/02/09 14:00:40;;;;;;;;;;;19.90;90.00;;;;;;4983718;28;20361;-75
2023/02/09 14:03:10;;;;;;;;;;;20.10;42.20;;;;;;4983609;28;20004;-74
2023/02/09 14:05:39;;;;;;;;;;;20.20;42.00;;;;;;4982282;28;19910;-74
2023/02/09 14:08:05;;;;;;;;;;;;;;;;;;4983394;28;19917;-74
2023/02/09 14:10:32;;;;;;;;;;;20.20;78.90;;;;;;4983327;28;19910;-75
2023/02/09 14:12:59;;;;;;;;;;;;;;;;;;4983256;28;19981;-77